Time;durP1;ratioP1;P1;durP2;ratioP2;P2;SDS_P1;SDS_P2;PMS_P1;PMS_P2;Temp;Humidity;BMP_temperature;BMP_pressure;BME280_temperature;BME280_humidity;BME280_pressure;Samples;Min_cycle;Max_cycle;Signal;HPM_P1;HPM_P2
2023/02/07 00:01:15;;;;;;;32.40;18.67;;;4.30;98.50;;;;;;5073250;28;20460;-56
2023/02/07 00:03:42;;;;;;;29.60;17.10;;;4.30;98.60;;;;;;5072804;28;20980;-56
2023/02/07 00:06:11;;;;;;;28.50;17.47;;;4.30;98.70;;;;;;5073210;28;20975;-56
2023/02/07 00:08:38;;;;;;;32.50;18.17;;;4.20;98.60;;;;;;5074202;28;20440;-56
2023/02/07 00:11:06;;;;;;;30.27;17.10;;;4.20;98.50;;;;;;5076865;28;20813;-56
2023/02/07 00:13:35;;;;;;;35.23;19.20;;;4.20;98.50;;;;;;5077142;28;20479;-56
2023/02/07 00:16:02;;;;;;;31.97;19.60;;;4.10;98.50;;;;;;5077157;28;20451;-56
2023/02/07 00:18:29;;;;;;;31.77;19.30;;;4.10;98.40;;;;;;5077461;28;20460;-56
2023/02/07 00:20:59;;;;;;;32.33;18.63;;;4.10;98.40;;;;;;5077261;28;20445;-56
2023/02/07 00:23:26;;;;;;;26.80;18.03;;;4.10;98.50;;;;;;5076937;28;20459;-56
2023/02/07 00:25:53;;;;;;;29.70;17.70;;;4.00;98.40;;;;;;5077085;28;20441;-56
2023/02/07 00:28:20;;;;;;;33.07;18.80;;;4.00;98.40;;;;;;5076956;28;20433;-56
2023/02/07 00:30:48;;;;;;;34.83;19.80;;;4.00;98.40;;;;;;5076578;28;20951;-56
2023/02/07 00:33:16;;;;;;;28.60;17.80;;;4.00;98.40;;;;;;5076993;28;20429;-56
2023/02/07 00:35:43;;;;;;;32.97;18.30;;;3.90;98.30;;;;;;5076856;28;20453;-57
2023/02/07 00:38:09;;;;;;;27.13;16.60;;;3.80;98.20;;;;;;5076745;28;20455;-57
2023/02/07 00:40:36;;;;;;;34.80;19.80;;;3.80;98.30;;;;;;5076637;28;20495;-56
2023/02/07 00:43:03;;;;;;;39.77;17.50;;;3.80;98.30;;;;;;5076325;28;20816;-56
2023/02/07 00:45:30;;;;;;;31.57;17.50;;;3.80;98.40;;;;;;5076428;28;20471;-56
2023/02/07 00:47:58;;;;;;;28.33;16.87;;;3.70;98.40;;;;;;5076141;28;20983;-56
2023/02/07 00:50:24;;;;;;;27.60;15.23;;;3.70;98.40;;;;;;5076540;28;20456;-57
2023/02/07 00:52:51;;;;;;;24.40;16.00;;;3.70;98.50;;;;;;5076460;28;20437;-56
2023/02/07 00:55:18;;;;;;;32.63;16.43;;;3.70;98.50;;;;;;5076343;28;20830;-57
2023/02/07 00:57:45;;;;;;;23.57;15.10;;;3.70;98.60;;;;;;5076329;28;20441;-56
2023/02/07 01:00:13;;;;;;;23.93;14.47;;;3.70;98.60;;;;;;5076310;28;20464;-56
2023/02/07 01:02:40;;;;;;;29.73;16.30;;;3.70;98.50;;;;;;5076133;28;20972;-57
2023/02/07 01:05:08;;;;;;;26.93;14.53;;;3.70;98.60;;;;;;5075933;28;21027;-56
2023/02/07 01:07:35;;;;;;;23.20;13.37;;;3.60;98.50;;;;;;5076295;28;20449;-56
2023/02/07 01:10:02;;;;;;;24.60;14.20;;;3.60;98.60;;;;;;5075833;28;20975;-56
2023/02/07 01:12:28;;;;;;;18.83;12.00;;;3.60;98.60;;;;;;5076150;28;20447;-56
2023/02/07 01:14:55;;;;;;;25.90;12.07;;;3.60;98.70;;;;;;5075904;28;21003;-55
2023/02/07 01:17:22;;;;;;;19.37;12.03;;;3.60;98.60;;;;;;5076136;28;20440;-56
2023/02/07 01:19:49;;;;;;;16.90;10.07;;;3.60;98.80;;;;;;5075964;28;20476;-56
2023/02/07 01:22:17;;;;;;;17.63;11.17;;;3.50;98.80;;;;;;5075998;28;20432;-55
2023/02/07 01:24:43;;;;;;;16.17;11.00;;;3.50;98.90;;;;;;5076101;28;20464;-56
2023/02/07 01:27:11;;;;;;;21.93;10.47;;;3.50;98.80;;;;;;5076052;28;20455;-55
2023/02/07 01:29:37;;;;;;;15.80;9.53;;;3.50;98.90;;;;;;5077184;28;20453;-57
2023/02/07 01:32:04;;;;;;;21.50;11.10;;;3.50;98.80;;;;;;5075704;28;20448;-55
2023/02/07 01:34:31;;;;;;;19.20;10.70;;;3.50;98.80;;;;;;5075941;28;20480;-56
2023/02/07 01:36:58;;;;;;;16.83;10.23;;;3.50;98.80;;;;;;5075667;28;20450;-56
2023/02/07 01:39:26;;;;;;;22.00;11.73;;;3.50;98.80;;;;;;5076400;28;20480;-56
2023/02/07 01:41:53;;;;;;;20.57;10.77;;;3.40;98.70;;;;;;5075682;28;20448;-55
2023/02/07 01:45:08;;;;;;;16.77;11.00;;;3.40;98.70;;;;;;5075234;28;20992;-55
2023/02/07 01:47:37;;;;;;;17.33;9.50;;;3.40;98.70;;;;;;5013817;28;20566;-56
2023/02/07 01:50:05;;;;;;;16.77;9.90;;;3.40;98.60;;;;;;5061333;28;20464;-56
2023/02/07 01:52:36;;;;;;;19.03;9.97;;;3.40;98.60;;;;;;5075354;28;20457;-56
2023/02/07 01:55:09;;;;;;;16.33;8.33;;;3.30;98.50;;;;;;5075312;28;20491;-57
2023/02/07 01:57:36;;;;;;;13.50;8.70;;;3.30;98.40;;;;;;5075454;28;20437;-56
2023/02/07 02:00:04;;;;;;;14.50;8.77;;;3.30;98.40;;;;;;5074929;28;21022;-56
2023/02/07 02:02:34;;;;;;;15.50;8.70;;;3.30;98.30;;;;;;5075195;28;20475;-56
2023/02/07 02:05:02;;;;;;;13.93;8.80;;;3.30;98.20;;;;;;5076207;28;20465;-56
2023/02/07 02:07:33;;;;;;;17.90;10.80;;;3.20;98.10;;;;;;5075124;28;20445;-57
2023/02/07 02:10:00;;;;;;;17.40;10.57;;;3.10;97.90;;;;;;5075038;28;20429;-56
2023/02/07 02:12:40;;;;;;;15.73;9.23;;;3.10;97.90;;;;;;5074742;28;20453;-56
2023/02/07 02:15:24;;;;;;;13.40;9.13;;;3.10;97.90;;;;;;5058657;28;20485;-56
2023/02/07 02:18:04;;;;;;;18.10;10.47;;;3.00;97.90;;;;;;5054699;28;20434;-57
2023/02/07 02:21:16;;;;;;;19.93;9.20;;;3.00;97.90;;;;;;5055807;28;20544;-56
2023/02/07 02:23:56;;;;;;;12.00;8.17;;;3.00;97.90;;;;;;5054909;28;20472;-56
2023/02/07 02:26:56;;;;;;;14.77;8.23;;;3.00;98.00;;;;;;5055213;28;20444;-56
2023/02/07 02:29:39;;;;;;;20.83;10.20;;;3.00;98.10;;;;;;5054483;28;20445;-56
2023/02/07 02:32:42;;;;;;;17.60;10.03;;;3.00;98.20;;;;;;5054311;28;20426;-56
2023/02/07 02:35:17;;;;;;;20.50;9.40;;;3.00;98.30;;;;;;5032537;28;20985;-56
2023/02/07 02:37:52;;;;;;;16.93;8.33;;;3.00;98.40;;;;;;5055222;28;20543;-57
2023/02/07 02:40:25;;;;;;;13.80;8.50;;;3.00;98.50;;;;;;5055224;28;20477;-56
2023/02/07 02:42:55;;;;;;;16.40;8.73;;;2.90;98.50;;;;;;5055642;28;20901;-56
2023/02/07 02:45:28;;;;;;;20.47;9.63;;;2.90;98.50;;;;;;5054451;28;20817;-56
2023/02/07 02:47:56;;;;;;;18.47;8.20;;;2.90;98.50;;;;;;5055765;28;20461;-56
2023/02/07 02:50:27;;;;;;;16.03;10.10;;;2.90;98.50;;;;;;5056110;28;20442;-57
2023/02/07 02:52:54;;;;;;;14.23;8.90;;;2.90;98.50;;;;;;5055338;28;20434;-56
2023/02/07 02:55:33;;;;;;;16.50;9.27;;;2.90;98.60;;;;;;5055448;28;20473;-56
2023/02/07 02:58:10;;;;;;;17.50;9.50;;;2.90;98.60;;;;;;5056174;28;20442;-56
2023/02/07 03:00:55;;;;;;;17.80;8.70;;;2.90;98.50;;;;;;5054371;28;20492;-55
2023/02/07 03:03:48;;;;;;;20.90;9.90;;;2.90;98.50;;;;;;5054310;28;20437;-56
2023/02/07 03:06:30;;;;;;;20.77;9.10;;;2.90;98.50;;;;;;5054181;28;20917;-56
2023/02/07 03:09:06;;;;;;;16.10;9.30;;;2.90;98.50;;;;;;5054347;28;20441;-56
2023/02/07 03:11:40;;;;;;;18.90;8.90;;;2.90;98.40;;;;;;5055041;28;20429;-56
2023/02/07 03:14:13;;;;;;;16.63;9.60;;;2.90;98.40;;;;;;5053887;28;20473;-56
2023/02/07 03:16:48;;;;;;;15.47;8.93;;;2.90;98.30;;;;;;5054796;28;20752;-56
2023/02/07 03:19:22;;;;;;;19.17;9.00;;;2.80;98.20;;;;;;5053846;28;20446;-56
2023/02/07 03:21:55;;;;;;;13.50;8.13;;;2.80;98.10;;;;;;5053761;28;20430;-56
2023/02/07 03:24:26;;;;;;;13.47;8.40;;;2.80;98.10;;;;;;5053642;28;20826;-56
2023/02/07 03:26:57;;;;;;;14.63;7.83;;;2.80;98.10;;;;;;5053921;28;20430;-56
2023/02/07 03:29:26;;;;;;;15.50;9.30;;;2.80;98.20;;;;;;5053677;28;20426;-56
2023/02/07 03:31:57;;;;;;;14.10;8.73;;;2.80;98.30;;;;;;5053600;28;20434;-56
2023/02/07 03:34:31;;;;;;;12.93;8.37;;;2.80;98.30;;;;;;5053452;28;20499;-56
2023/02/07 03:37:03;;;;;;;17.97;8.83;;;2.70;98.30;;;;;;5053566;28;20426;-56
2023/02/07 03:39:30;;;;;;;11.23;7.93;;;2.70;98.30;;;;;;5053124;28;20449;-55
2023/02/07 03:42:00;;;;;;;15.97;8.10;;;2.70;98.30;;;;;;5053674;28;20453;-56
2023/02/07 03:44:29;;;;;;;13.30;8.20;;;2.70;98.30;;;;;;5052251;28;20981;-56
2023/02/07 03:46:56;;;;;;;13.13;8.60;;;2.70;98.20;;;;;;5053235;28;20458;-56
2023/02/07 03:49:22;;;;;;;11.57;7.90;;;2.70;98.30;;;;;;5053427;28;20505;-56
2023/02/07 03:51:50;;;;;;;15.80;9.07;;;2.70;98.40;;;;;;5053325;28;20438;-57
2023/02/07 03:54:18;;;;;;;14.43;8.43;;;2.60;98.50;;;;;;5053136;28;20469;-57
2023/02/07 03:56:45;;;;;;;13.87;8.90;;;2.60;98.60;;;;;;5053241;28;20442;-56
2023/02/07 03:59:12;;;;;;;15.83;9.57;;;2.60;98.60;;;;;;5053201;28;20461;-56
2023/02/07 04:01:41;;;;;;;16.23;8.43;;;2.60;98.50;;;;;;5052742;28;20977;-55
2023/02/07 04:04:08;;;;;;;14.60;9.47;;;2.60;98.30;;;;;;5053115;28;20473;-56
2023/02/07 04:06:35;;;;;;;13.90;8.23;;;2.60;98.30;;;;;;5053253;28;20434;-57
2023/02/07 04:09:01;;;;;;;18.57;9.20;;;2.60;98.30;;;;;;5052852;28;20458;-56
2023/02/07 04:11:29;;;;;;;15.20;9.80;;;2.60;98.20;;;;;;5053047;28;20449;-56
2023/02/07 04:13:56;;;;;;;17.43;8.60;;;2.60;98.10;;;;;;5052915;28;20864;-56
2023/02/07 04:16:23;;;;;;;12.60;8.80;;;2.50;97.90;;;;;;5053056;28;20461;-56
2023/02/07 04:18:50;;;;;;;14.00;8.77;;;2.50;97.90;;;;;;5053132;28;20434;-57
2023/02/07 04:21:16;;;;;;;16.50;9.03;;;2.50;98.30;;;;;;5053003;28;20481;-56
2023/02/07 04:23:43;;;;;;;14.17;8.10;;;2.50;97.90;;;;;;5052837;28;20473;-56
2023/02/07 04:26:10;;;;;;;15.67;8.57;;;2.50;97.80;;;;;;5053088;28;20449;-55
2023/02/07 04:28:38;;;;;;;23.83;9.90;;;2.50;97.70;;;;;;5052676;28;20937;-55
2023/02/07 04:31:05;;;;;;;18.23;9.60;;;2.50;97.60;;;;;;5053032;28;20619;-56
2023/02/07 04:33:32;;;;;;;14.90;8.37;;;2.40;97.50;;;;;;5052910;28;20444;-55
2023/02/07 04:36:00;;;;;;;17.20;9.63;;;2.40;97.60;;;;;;5052678;28;20942;-56
2023/02/07 04:38:28;;;;;;;11.63;8.33;;;2.40;97.60;;;;;;5052560;28;20434;-56
2023/02/07 04:40:58;;;;;;;14.80;9.00;;;2.40;97.60;;;;;;5052804;28;20484;-56
2023/02/07 04:43:25;;;;;;;13.33;8.53;;;2.40;97.60;;;;;;5052667;28;20442;-55
2023/02/07 04:45:53;;;;;;;13.63;8.50;;;2.30;97.50;;;;;;5053580;28;20456;-55
2023/02/07 04:48:20;;;;;;;15.53;8.57;;;2.30;97.40;;;;;;5052500;28;20472;-56
2023/02/07 04:50:46;;;;;;;12.00;7.90;;;2.30;97.40;;;;;;5052750;28;20476;-55
2023/02/07 04:53:13;;;;;;;16.33;9.37;;;2.20;97.40;;;;;;5052622;28;20456;-56
2023/02/07 04:55:40;;;;;;;16.67;8.40;;;2.20;97.40;;;;;;5055340;28;20446;-56
2023/02/07 04:58:07;;;;;;;11.80;8.33;;;2.20;97.40;;;;;;5056110;28;20851;-56
2023/02/07 05:00:34;;;;;;;12.80;8.83;;;2.20;97.40;;;;;;5056257;28;20539;-55
2023/02/07 05:03:02;;;;;;;17.00;8.77;;;2.20;97.40;;;;;;5056376;28;20453;-56
2023/02/07 05:05:29;;;;;;;16.00;9.27;;;2.20;97.50;;;;;;5055902;28;20469;-56
2023/02/07 05:07:55;;;;;;;16.37;9.77;;;2.10;97.60;;;;;;5056169;28;20463;-55
2023/02/07 05:10:22;;;;;;;11.87;8.50;;;2.10;97.70;;;;;;5056159;28;20469;-56
2023/02/07 05:12:49;;;;;;;15.43;10.10;;;2.10;97.70;;;;;;5056149;28;20454;-56
2023/02/07 05:15:16;;;;;;;14.53;9.07;;;2.10;97.80;;;;;;5055695;28;20485;-55
2023/02/07 05:17:42;;;;;;;14.07;9.73;;;2.10;97.90;;;;;;5056344;28;20457;-56
2023/02/07 05:20:11;;;;;;;13.93;9.83;;;2.10;97.90;;;;;;5055940;28;20806;-56
2023/02/07 05:22:38;;;;;;;14.47;8.93;;;2.10;97.90;;;;;;5055649;28;20434;-56
2023/02/07 05:25:06;;;;;;;21.13;10.37;;;2.10;97.90;;;;;;5055726;28;20473;-56
2023/02/07 05:27:33;;;;;;;18.47;10.93;;;2.10;97.80;;;;;;5055848;28;20948;-56
2023/02/07 05:30:00;;;;;;;14.37;8.90;;;2.10;97.70;;;;;;5055879;28;20544;-55
2023/02/07 05:35:12;;;;;;;17.37;9.33;;;2.00;97.70;;;;;;5055463;28;20451;-55
2023/02/07 05:37:39;;;;;;;14.13;10.37;;;2.00;97.70;;;;;;5055737;28;20453;-56
2023/02/07 05:40:06;;;;;;;12.77;8.27;;;2.00;97.80;;;;;;5055707;28;20458;-55
2023/02/07 05:42:33;;;;;;;13.67;8.77;;;2.00;97.90;;;;;;5055796;28;20446;-55
2023/02/07 05:45:00;;;;;;;18.10;9.90;;;2.00;98.00;;;;;;5055374;28;20469;-55
2023/02/07 05:47:27;;;;;;;13.00;8.10;;;2.00;98.00;;;;;;5055279;28;20556;-55
2023/02/07 05:49:53;;;;;;;16.20;9.43;;;2.00;98.10;;;;;;5055605;28;20568;-56
2023/02/07 05:52:21;;;;;;;16.73;9.83;;;2.00;98.10;;;;;;5055050;28;20819;-56
2023/02/07 05:54:48;;;;;;;17.97;10.47;;;2.00;98.20;;;;;;5055290;28;20469;-56
2023/02/07 05:57:15;;;;;;;15.90;10.53;;;2.00;98.30;;;;;;5055303;28;20964;-55
2023/02/07 05:59:42;;;;;;;16.97;10.43;;;2.00;98.40;;;;;;5055224;28;20446;-55
2023/02/07 06:02:08;;;;;;;16.40;9.63;;;2.00;98.70;;;;;;5055200;28;21001;-55
2023/02/07 06:04:35;;;;;;;13.57;8.90;;;2.00;98.30;;;;;;5055120;28;20469;-56
2023/02/07 06:07:02;;;;;;;16.33;10.10;;;2.00;98.30;;;;;;5054103;28;20430;-56
2023/02/07 06:09:30;;;;;;;13.83;9.80;;;2.00;98.30;;;;;;5055053;28;20442;-56
2023/02/07 06:11:57;;;;;;;17.30;9.90;;;2.00;98.30;;;;;;5055110;28;20455;-56
2023/02/07 06:14:23;;;;;;;17.07;9.77;;;2.00;98.10;;;;;;5054877;28;20477;-56
2023/02/07 06:16:50;;;;;;;13.00;9.27;;;2.00;98.00;;;;;;5054974;28;20453;-56
2023/02/07 06:19:17;;;;;;;16.70;11.00;;;2.00;97.80;;;;;;5054574;28;20953;-56
2023/02/07 06:21:44;;;;;;;17.43;10.17;;;1.90;97.80;;;;;;5054770;28;20481;-56
2023/02/07 06:24:10;;;;;;;13.87;9.93;;;1.90;97.70;;;;;;5054720;28;20469;-55
2023/02/07 06:26:38;;;;;;;16.70;10.57;;;1.90;97.70;;;;;;5054748;28;20445;-55
2023/02/07 06:29:05;;;;;;;13.30;8.97;;;1.90;97.60;;;;;;5054704;28;20458;-56
2023/02/07 06:31:32;;;;;;;14.27;9.00;;;1.90;97.50;;;;;;5054665;28;20450;-56
2023/02/07 06:33:58;;;;;;;12.10;8.97;;;1.80;97.40;;;;;;5054575;28;20492;-55
2023/02/07 06:36:25;;;;;;;15.10;8.53;;;1.80;97.40;;;;;;5054561;28;20450;-55
2023/02/07 06:38:54;;;;;;;14.13;10.43;;;1.80;97.40;;;;;;5054810;28;20445;-56
2023/02/07 06:41:21;;;;;;;14.20;8.57;;;1.80;97.30;;;;;;5054603;28;20534;-55
2023/02/07 06:43:49;;;;;;;14.10;8.33;;;1.70;97.20;;;;;;5054270;28;20473;-55
2023/02/07 06:46:16;;;;;;;14.00;9.03;;;1.70;97.20;;;;;;5054412;28;20453;-56
2023/02/07 06:48:42;;;;;;;15.07;8.60;;;1.70;97.20;;;;;;5053944;28;20457;-56
2023/02/07 06:51:09;;;;;;;12.77;8.20;;;1.70;97.10;;;;;;5054279;28;20453;-55
2023/02/07 06:53:36;;;;;;;13.53;7.87;;;1.60;97.10;;;;;;5054112;28;20470;-55
2023/02/07 06:56:03;;;;;;;13.63;8.10;;;1.60;97.10;;;;;;5053825;28;20942;-55
2023/02/07 06:58:30;;;;;;;12.93;8.13;;;1.60;97.10;;;;;;5054150;28;20445;-55
2023/02/07 07:00:58;;;;;;;13.27;7.90;;;1.60;97.00;;;;;;5053658;28;20491;-56
2023/02/07 07:03:27;;;;;;;12.57;7.80;;;1.60;96.90;;;;;;5053876;28;20441;-55
2023/02/07 07:05:54;;;;;;;13.00;8.10;;;1.60;97.00;;;;;;5053997;28;20519;-55
2023/02/07 07:08:21;;;;;;;13.83;8.10;;;1.50;96.80;;;;;;5053924;28;20456;-55
2023/02/07 07:10:48;;;;;;;12.37;7.53;;;1.50;96.80;;;;;;5053920;28;20444;-56
2023/02/07 07:13:15;;;;;;;12.97;7.83;;;1.40;96.80;;;;;;5053725;28;20457;-55
2023/02/07 07:15:41;;;;;;;8.77;6.67;;;1.40;96.80;;;;;;5053809;28;20846;-56
2023/02/07 07:18:10;;;;;;;9.90;6.80;;;1.40;96.80;;;;;;5053570;28;20438;-57
2023/02/07 07:20:36;;;;;;;10.07;8.00;;;1.40;96.80;;;;;;5053609;28;20847;-56
2023/02/07 07:23:03;;;;;;;11.20;7.40;;;1.40;96.90;;;;;;5053454;28;20442;-56
2023/02/07 07:25:30;;;;;;;13.10;8.07;;;1.40;96.80;;;;;;5053628;28;20465;-57
2023/02/07 07:27:57;;;;;;;10.10;7.57;;;1.40;96.80;;;;;;5053336;28;20942;-56
2023/02/07 07:30:24;;;;;;;11.33;7.23;;;1.40;96.80;;;;;;5053554;28;20511;-55
2023/02/07 07:32:51;;;;;;;11.60;7.70;;;1.40;96.90;;;;;;5053544;28;20445;-56
2023/02/07 07:35:19;;;;;;;16.70;8.53;;;1.40;96.90;;;;;;5053453;28;20474;-56
2023/02/07 07:37:46;;;;;;;12.00;7.13;;;1.40;96.90;;;;;;5053268;28;20925;-56
2023/02/07 07:40:13;;;;;;;11.80;6.77;;;1.40;96.90;;;;;;5053608;28;20446;-56
2023/02/07 07:42:40;;;;;;;13.10;8.17;;;1.40;97.00;;;;;;5053357;28;20481;-56
2023/02/07 07:45:07;;;;;;;13.10;8.50;;;1.40;97.10;;;;;;5053521;28;20544;-55
2023/02/07 07:47:34;;;;;;;12.13;9.63;;;1.50;97.30;;;;;;5053260;28;20492;-55
2023/02/07 07:50:00;;;;;;;15.30;10.23;;;1.50;97.50;;;;;;5053339;28;20454;-55
2023/02/07 07:52:30;;;;;;;15.33;9.53;;;1.50;97.50;;;;;;5053273;28;20434;-55
2023/02/07 07:54:57;;;;;;;12.77;9.10;;;1.50;97.60;;;;;;5053647;28;20462;-56
2023/02/07 07:57:27;;;;;;;13.40;8.90;;;1.50;97.70;;;;;;5053268;28;20453;-56
2023/02/07 07:59:53;;;;;;;12.90;10.20;;;1.50;97.70;;;;;;5053256;28;20553;-56
2023/02/07 08:02:20;;;;;;;16.93;10.23;;;1.50;97.70;;;;;;5052691;28;21035;-56
2023/02/07 08:04:47;;;;;;;14.00;9.00;;;1.50;97.70;;;;;;5053209;28;20462;-57
2023/02/07 08:07:14;;;;;;;11.70;8.90;;;1.40;97.70;;;;;;5054044;28;20426;-57
2023/02/07 08:09:42;;;;;;;12.93;9.60;;;1.50;98.00;;;;;;5053356;28;20438;-57
2023/02/07 08:12:09;;;;;;;10.30;8.93;;;1.50;98.10;;;;;;5053731;28;20453;-56
2023/02/07 08:14:35;;;;;;;11.67;8.70;;;1.50;98.20;;;;;;5052927;28;20489;-56
2023/02/07 08:17:02;;;;;;;13.07;9.17;;;1.50;98.30;;;;;;5053282;28;20432;-57
2023/02/07 08:19:29;;;;;;;10.40;8.33;;;1.60;98.30;;;;;;5053083;28;20453;-56
2023/02/07 08:21:56;;;;;;;13.23;8.53;;;1.60;98.50;;;;;;5052980;28;20481;-56
2023/02/07 08:24:23;;;;;;;14.63;7.60;;;1.60;98.60;;;;;;5052682;28;21005;-56
2023/02/07 08:26:51;;;;;;;12.43;8.10;;;1.60;98.70;;;;;;5052767;28;21007;-56
2023/02/07 08:29:18;;;;;;;12.73;7.63;;;1.70;98.90;;;;;;5053479;28;20450;-56
2023/02/07 08:31:46;;;;;;;11.63;7.70;;;1.70;98.90;;;;;;5057169;28;20497;-57
2023/02/07 08:34:13;;;;;;;8.40;7.10;;;1.80;99.10;;;;;;5056542;28;21001;-57
2023/02/07 08:36:40;;;;;;;9.83;7.40;;;1.80;99.20;;;;;;5056945;28;20453;-56
2023/02/07 08:39:07;;;;;;;9.93;7.00;;;1.80;99.30;;;;;;5056891;28;20827;-56
2023/02/07 08:41:33;;;;;;;12.53;7.83;;;1.90;99.40;;;;;;5056698;28;20485;-56
2023/02/07 08:44:01;;;;;;;10.37;8.07;;;1.90;99.50;;;;;;5056276;28;20477;-56
2023/02/07 08:46:28;;;;;;;12.10;7.90;;;2.00;99.60;;;;;;5056694;28;20457;-57
2023/02/07 08:48:55;;;;;;;10.33;7.30;;;2.00;99.60;;;;;;5056259;28;20457;-57
2023/02/07 08:51:21;;;;;;;10.83;7.27;;;2.10;99.70;;;;;;5056595;28;20441;-57
2023/02/07 08:53:48;;;;;;;10.00;7.90;;;2.10;99.70;;;;;;5056584;28;20469;-57
2023/02/07 08:56:15;;;;;;;11.33;7.07;;;2.20;99.70;;;;;;5056264;28;20454;-56
2023/02/07 08:58:41;;;;;;;8.90;7.20;;;2.20;99.80;;;;;;5056421;28;20445;-56
2023/02/07 09:01:10;;;;;;;9.90;7.00;;;2.30;99.80;;;;;;5056331;28;20552;-56
2023/02/07 09:03:37;;;;;;;7.50;6.30;;;2.30;99.70;;;;;;5056418;28;20829;-57
2023/02/07 09:06:03;;;;;;;15.43;7.43;;;2.40;99.80;;;;;;5056291;28;20442;-57
2023/02/07 09:08:30;;;;;;;10.33;8.03;;;2.40;99.70;;;;;;5056088;28;20441;-57
2023/02/07 09:10:57;;;;;;;14.10;8.70;;;2.50;99.80;;;;;;5056331;28;20454;-57
2023/02/07 09:13:24;;;;;;;11.53;7.90;;;2.50;99.70;;;;;;5056103;28;20807;-57
2023/02/07 09:15:54;;;;;;;14.80;9.23;;;2.60;99.70;;;;;;5056226;28;20429;-57
2023/02/07 09:18:22;;;;;;;12.70;8.00;;;2.60;99.60;;;;;;5056227;28;20441;-57
2023/02/07 09:20:49;;;;;;;10.23;7.67;;;2.60;99.60;;;;;;5055883;28;20938;-57
2023/02/07 09:23:18;;;;;;;11.73;8.10;;;2.70;99.60;;;;;;5056110;28;20477;-57
2023/02/07 09:25:46;;;;;;;11.40;8.30;;;2.70;99.60;;;;;;5056156;28;20449;-57
2023/02/07 09:28:13;;;;;;;9.80;8.30;;;2.80;99.70;;;;;;5056513;28;20426;-56
2023/02/07 09:30:41;;;;;;;10.80;7.00;;;2.80;99.60;;;;;;5056552;28;20460;-57
2023/02/07 09:33:07;;;;;;;10.50;7.87;;;2.90;99.60;;;;;;5057051;28;20855;-56
2023/02/07 09:35:38;;;;;;;16.13;7.43;;;3.00;99.60;;;;;;5056702;28;20974;-57
2023/02/07 09:38:05;;;;;;;10.30;6.80;;;3.00;99.40;;;;;;5057053;28;20452;-57
2023/02/07 09:40:37;;;;;;;8.00;6.90;;;3.10;99.40;;;;;;5056405;28;20434;-57
2023/02/07 09:43:14;;;;;;;10.00;6.50;;;3.10;99.30;;;;;;5055506;28;20465;-56
2023/02/07 09:45:45;;;;;;;15.10;6.80;;;3.20;99.10;;;;;;5056230;28;20465;-57
2023/02/07 09:48:16;;;;;;;8.70;6.90;;;3.20;98.90;;;;;;5055442;28;20977;-57
2023/02/07 09:50:50;;;;;;;7.33;6.30;;;3.30;98.70;;;;;;5055744;28;20442;-57
2023/02/07 09:53:23;;;;;;;13.87;6.70;;;3.30;98.80;;;;;;5055533;28;20434;-56
2023/02/07 09:55:53;;;;;;;7.40;6.40;;;3.40;98.80;;;;;;5055529;28;20434;-57
2023/02/07 09:58:27;;;;;;;11.40;6.50;;;3.50;98.70;;;;;;5055330;28;20808;-57
2023/02/07 10:01:00;;;;;;;8.03;6.17;;;3.50;98.60;;;;;;5055065;28;20422;-56
2023/02/07 10:03:28;;;;;;;8.87;6.53;;;3.70;98.60;;;;;;5055301;28;20477;-56
2023/02/07 10:06:00;;;;;;;8.83;6.10;;;3.70;98.50;;;;;;5055184;28;20449;-57
2023/02/07 10:08:28;;;;;;;7.70;6.63;;;3.80;98.40;;;;;;5055465;28;20449;-57
2023/02/07 10:11:07;;;;;;;10.77;6.20;;;3.80;98.30;;;;;;5054867;28;20945;-55
2023/02/07 10:13:50;;;;;;;8.67;6.10;;;3.90;98.20;;;;;;5054758;28;20441;-56
2023/02/07 10:16:32;;;;;;;7.97;6.93;;;4.00;98.20;;;;;;5055063;28;20446;-56
2023/02/07 10:19:08;;;;;;;7.90;7.10;;;4.10;98.20;;;;;;5055584;28;20434;-57
2023/02/07 10:21:44;;;;;;;7.57;6.37;;;4.10;98.00;;;;;;5054844;28;20438;-57
2023/02/07 10:24:35;;;;;;;6.80;6.10;;;4.20;97.80;;;;;;5054703;28;20469;-56
2023/02/07 10:27:09;;;;;;;7.37;6.60;;;4.30;97.70;;;;;;5054802;28;20802;-56
2023/02/07 10:29:48;;;;;;;10.13;7.70;;;4.40;97.50;;;;;;5054453;28;20437;-56
2023/02/07 10:32:20;;;;;;;8.97;7.37;;;4.50;97.30;;;;;;5054568;28;20440;-54
2023/02/07 10:34:47;;;;;;;8.77;7.87;;;4.60;97.10;;;;;;5054650;28;20474;-55
2023/02/07 10:37:20;;;;;;;10.30;7.50;;;4.70;96.90;;;;;;5054816;28;20459;-56
2023/02/07 10:39:52;;;;;;;8.40;6.90;;;4.80;96.80;;;;;;5054761;28;20445;-56
2023/02/07 10:42:19;;;;;;;9.27;7.90;;;4.90;96.70;;;;;;5054403;28;20468;-55
2023/02/07 10:44:47;;;;;;;9.77;7.47;;;5.00;96.40;;;;;;5054028;28;20981;-55
2023/02/07 10:47:16;;;;;;;8.73;7.83;;;5.10;96.40;;;;;;5054248;28;20473;-56
2023/02/07 10:49:46;;;;;;;8.90;8.00;;;5.20;95.80;;;;;;5054440;28;20449;-56
2023/02/07 10:52:27;;;;;;;7.93;7.00;;;5.40;95.40;;;;;;5053770;28;20518;-56
2023/02/07 10:54:55;;;;;;;10.33;8.00;;;5.60;95.20;;;;;;5054187;28;20518;-56
2023/02/07 10:57:23;;;;;;;8.67;7.77;;;5.80;94.90;;;;;;5054159;28;20445;-56
2023/02/07 10:59:58;;;;;;;7.47;6.70;;;6.00;94.30;;;;;;5054123;28;20450;-55
2023/02/07 11:02:43;;;;;;;9.90;7.33;;;6.20;93.50;;;;;;5054081;28;20473;-56
2023/02/07 11:05:37;;;;;;;7.50;6.80;;;6.40;92.70;;;;;;5054042;28;20509;-56
2023/02/07 11:08:16;;;;;;;7.77;6.10;;;6.60;92.40;;;;;;5054045;28;20434;-56
2023/02/07 11:10:44;;;;;;;11.10;7.37;;;6.80;92.20;;;;;;5053596;28;20426;-56
2023/02/07 11:13:13;;;;;;;8.00;6.80;;;7.00;91.40;;;;;;5053827;28;20437;-55
2023/02/07 11:15:53;;;;;;;7.57;6.87;;;7.10;90.50;;;;;;5073428;28;20473;-56
2023/02/07 11:18:43;;;;;;;8.70;6.93;;;7.30;90.10;;;;;;5073517;28;20432;-57
2023/02/07 11:21:23;;;;;;;6.40;5.80;;;7.50;89.70;;;;;;5073758;28;20429;-57
2023/02/07 11:23:53;;;;;;;6.87;6.17;;;7.80;88.00;;;;;;5073556;28;20899;-57
2023/02/07 11:26:21;;;;;;;6.93;6.23;;;8.10;86.30;;;;;;5073685;28;20444;-57
2023/02/07 11:28:52;;;;;;;6.57;5.97;;;8.60;84.20;;;;;;5073658;28;20453;-57
2023/02/07 11:31:27;;;;;;;6.30;5.80;;;9.30;79.60;;;;;;5073645;28;20433;-57
2023/02/07 11:33:54;;;;;;;6.23;5.60;;;10.10;72.80;;;;;;5073213;28;20460;-58
2023/02/07 11:36:24;;;;;;;6.57;5.93;;;10.80;67.80;;;;;;5073564;28;20455;-58
2023/02/07 11:38:55;;;;;;;6.50;5.80;;;11.50;63.40;;;;;;5073240;28;20976;-57
2023/02/07 11:41:25;;;;;;;6.23;5.70;;;12.10;59.40;;;;;;5073271;28;20913;-57
2023/02/07 11:43:57;;;;;;;6.20;5.60;;;12.70;57.70;;;;;;5073350;28;20587;-57
2023/02/07 11:46:33;;;;;;;7.13;5.97;;;13.20;54.00;;;;;;5073542;28;20770;-58
2023/02/07 11:48:59;;;;;;;5.63;5.03;;;13.60;52.40;;;;;;5074351;28;20480;-58
2023/02/07 11:51:27;;;;;;;5.60;5.20;;;14.00;51.30;;;;;;5073435;28;20425;-57
2023/02/07 11:53:59;;;;;;;6.47;5.87;;;14.40;49.30;;;;;;5073042;28;21029;-58
2023/02/07 11:56:30;;;;;;;6.13;5.53;;;14.80;48.10;;;;;;5073431;28;20801;-58
2023/02/07 11:58:58;;;;;;;6.20;5.10;;;15.10;46.00;;;;;;5073413;28;20593;-57
2023/02/07 12:01:28;;;;;;;6.03;5.53;;;15.40;45.00;;;;;;5073305;28;20440;-58
2023/02/07 12:03:59;;;;;;;7.63;5.20;;;15.70;43.70;;;;;;5073162;28;20485;-58
2023/02/07 12:06:32;;;;;;;5.20;4.80;;;15.90;43.50;;;;;;5077546;28;20432;-58
2023/02/07 12:09:01;;;;;;;6.57;5.20;;;16.20;42.70;;;;;;5077258;28;20486;-58
2023/02/07 12:11:35;;;;;;;6.10;5.53;;;16.50;41.80;;;;;;5077461;28;20445;-58
2023/02/07 12:14:08;;;;;;;6.07;5.33;;;16.90;41.30;;;;;;5077332;28;20484;-57
2023/02/07 12:16:38;;;;;;;5.07;4.67;;;17.20;39.20;;;;;;5077589;28;20433;-58
2023/02/07 12:19:11;;;;;;;5.60;5.00;;;17.40;37.80;;;;;;5077008;28;20940;-58
2023/02/07 12:21:46;;;;;;;5.87;5.37;;;17.70;37.70;;;;;;5077020;28;20928;-58
2023/02/07 12:24:20;;;;;;;6.27;5.67;;;17.80;35.90;;;;;;5077169;28;20565;-58
2023/02/07 12:26:52;;;;;;;5.73;5.23;;;18.10;36.40;;;;;;5076932;28;20848;-58
2023/02/07 12:29:27;;;;;;;5.47;5.07;;;18.30;35.60;;;;;;5077307;28;20491;-58
2023/02/07 12:32:03;;;;;;;6.00;5.40;;;18.50;34.80;;;;;;5077109;28;20457;-58
2023/02/07 12:34:34;;;;;;;5.90;4.70;;;18.70;34.30;;;;;;5076883;28;20487;-58
2023/02/07 12:37:05;;;;;;;8.43;5.03;;;18.80;33.00;;;;;;5077358;28;20451;-58
2023/02/07 12:39:40;;;;;;;7.47;5.80;;;19.00;32.70;;;;;;5076979;28;20429;-58
2023/02/07 12:42:25;;;;;;;6.13;4.90;;;19.20;32.60;;;;;;5077059;28;20444;-58
2023/02/07 12:44:55;;;;;;;5.50;5.10;;;19.40;32.90;;;;;;5076778;28;20878;-57
2023/02/07 12:47:28;;;;;;;5.53;5.03;;;19.60;31.80;;;;;;5076871;28;20484;-58
2023/02/07 12:50:11;;;;;;;5.30;4.80;;;19.70;31.20;;;;;;5077029;28;20437;-58
2023/02/07 12:52:53;;;;;;;5.60;5.20;;;19.90;31.30;;;;;;5076760;28;20432;-58
2023/02/07 12:55:37;;;;;;;6.07;4.70;;;20.10;30.70;;;;;;5076353;28;21015;-58
2023/02/07 12:58:27;;;;;;;6.30;5.70;;;20.30;29.50;;;;;;5076619;28;20433;-58
2023/02/07 13:01:00;;;;;;;5.20;4.80;;;20.40;29.60;;;;;;5076562;28;20478;-58
2023/02/07 13:03:45;;;;;;;5.97;5.50;;;20.60;29.30;;;;;;5076714;28;20904;-58